Time;durP1;ratioP1;P1;durP2;ratioP2;P2;SDS_P1;SDS_P2;PMS_P1;PMS_P2;Temp;Humidity;BMP_temperature;BMP_pressure;BME280_temperature;BME280_humidity;BME280_pressure;Samples;Min_cycle;Max_cycle;Signal;HPM_P1;HPM_P2
2023/05/24 00:00:51;;;;;;;10.52;7.80;;;410.30;2355.20;;;;;;5061448;28;20465;-88
2023/05/24 00:03:18;;;;;;;11.93;7.32;;;410.30;2355.20;;;;;;5077983;28;20020;-84
2023/05/24 00:05:45;;;;;;;15.00;7.00;;;410.20;2355.20;;;;;;5077847;28;20024;-84
2023/05/24 00:08:11;;;;;;;9.55;7.03;;;410.20;2355.20;;;;;;5059354;28;20500;-85
2023/05/24 00:10:37;;;;;;;8.93;6.97;;;410.20;2355.20;;;;;;5058944;28;20021;-85
2023/05/24 00:13:03;;;;;;;9.02;6.93;;;410.00;2355.20;;;;;;5059486;28;20028;-84
2023/05/24 00:15:28;;;;;;;13.10;7.80;;;410.10;2355.20;;;;;;5077131;28;20096;-85
2023/05/24 00:17:54;;;;;;;14.20;7.90;;;410.20;2355.20;;;;;;5058912;28;20029;-85
2023/05/24 00:20:20;;;;;;;9.48;7.13;;;409.90;2355.20;;;;;;5059490;28;20465;-86
2023/05/24 00:22:46;;;;;;;8.52;7.18;;;410.10;2355.20;;;;;;5077729;28;20085;-85
2023/05/24 00:25:12;;;;;;;11.43;7.35;;;410.20;2355.20;;;;;;5058821;28;20384;-85
2023/05/24 00:27:38;;;;;;;8.50;6.93;;;410.10;2355.20;;;;;;5061601;28;20017;-85
2023/05/24 00:30:05;;;;;;;9.32;6.90;;;410.10;2355.20;;;;;;5060278;28;20482;-84
2023/05/24 00:32:30;;;;;;;11.63;7.68;;;410.00;2355.20;;;;;;5077161;28;20021;-85
2023/05/24 00:34:56;;;;;;;10.52;6.95;;;410.10;2355.20;;;;;;5059848;28;20373;-85
2023/05/24 00:37:22;;;;;;;10.48;7.95;;;410.00;2355.20;;;;;;5060290;28;20475;-84
2023/05/24 00:39:48;;;;;;;10.77;6.95;;;409.90;2355.20;;;;;;5078229;28;20080;-84
2023/05/24 00:42:13;;;;;;;11.32;7.63;;;409.90;2355.20;;;;;;5060812;28;20124;-86
2023/05/24 00:44:39;;;;;;;9.10;7.32;;;409.70;2355.20;;;;;;5061805;28;20036;-84
2023/05/24 00:47:06;;;;;;;14.40;8.27;;;409.80;2355.20;;;;;;5064122;28;20024;-84
2023/05/24 00:49:34;;;;;;;12.68;8.25;;;409.90;2355.20;;;;;;5046496;28;20029;-84
2023/05/24 00:52:00;;;;;;;10.45;7.32;;;409.80;2355.20;;;;;;5061883;28;20283;-85
2023/05/24 00:54:30;;;;;;;12.73;8.23;;;409.90;2355.20;;;;;;5071156;28;20023;-79
2023/05/24 00:56:56;;;;;;;9.23;6.97;;;409.80;2355.20;;;;;;5096675;28;20437;-83
2023/05/24 00:59:23;;;;;;;8.70;6.38;;;409.80;2355.20;;;;;;5065404;28;20025;-79
2023/05/24 01:01:49;;;;;;;8.68;6.85;;;409.80;2355.20;;;;;;5069739;28;20388;-80
2023/05/24 01:04:16;;;;;;;10.10;6.72;;;409.70;2355.20;;;;;;5066760;28;20052;-85
2023/05/24 01:07:04;;;;;;;9.98;7.22;;;409.60;2355.20;;;;;;5065520;28;20024;-85
2023/05/24 01:09:36;;;;;;;10.75;6.75;;;;;;;;;;5063431;28;20036;-85
2023/05/24 01:12:26;;;;;;;12.07;7.47;;;;;;;;;;5066117;28;20024;-85
2023/05/24 01:15:09;;;;;;;10.75;8.05;;;409.60;2355.20;;;;;;5051275;28;20078;-85
2023/05/24 01:18:00;;;;;;;10.32;7.68;;;384.80;2329.60;;;;;;5044978;28;20116;-82
2023/05/24 01:20:30;;;;;;;10.45;7.40;;;409.60;2355.20;;;;;;5060068;28;20047;-83
2023/05/24 01:23:15;;;;;;;13.30;7.20;;;384.90;2329.60;;;;;;5060720;28;20029;-85
2023/05/24 01:25:47;;;;;;;9.63;7.47;;;384.70;2329.60;;;;;;5060800;28;20024;-85
2023/05/24 01:28:15;;;;;;;;;;;384.80;2329.60;;;;;;5061505;28;20039;-85
2023/05/24 01:30:41;;;;;;;11.27;7.15;;;384.70;2329.60;;;;;;5061213;28;19904;-83
2023/05/24 01:33:07;;;;;;;9.18;7.28;;;384.50;2329.60;;;;;;5059936;28;20115;-85
2023/05/24 01:35:38;;;;;;;9.65;7.40;;;384.60;2329.60;;;;;;5058351;28;20129;-85
2023/05/24 01:38:05;;;;;;;9.88;7.35;;;384.70;2329.60;;;;;;5060022;28;20032;-85
2023/05/24 01:40:33;;;;;;;9.68;7.03;;;384.80;2329.60;;;;;;5059452;28;20400;-86
2023/05/24 01:43:13;;;;;;;10.35;8.25;;;384.70;2329.60;;;;;;5058113;28;20032;-85
2023/05/24 01:45:56;;;;;;;11.85;8.18;;;384.30;2329.60;;;;;;5059464;28;20434;-85
2023/05/24 01:48:46;;;;;;;11.30;7.25;;;;;;;;;;5058080;28;20024;-85
2023/05/24 01:51:15;;;;;;;11.60;8.00;;;;;;;;;;5058016;28;20027;-85
2023/05/24 01:53:45;;;;;;;11.70;7.80;;;384.80;2329.60;;;;;;5057683;28;20025;-85
2023/05/24 01:56:13;;;;;;;13.50;8.40;;;384.70;2329.60;;;;;;5057400;28;20025;-85
2023/05/24 01:58:45;;;;;;;11.02;7.30;;;384.60;2329.60;;;;;;5057516;28;20060;-86
2023/05/24 02:01:15;;;;;;;17.42;7.65;;;384.60;2329.60;;;;;;5058802;28;20035;-85
2023/05/24 02:03:40;;;;;;;14.20;8.35;;;384.60;2329.60;;;;;;5057471;28;20029;-84
2023/05/24 02:06:07;;;;;;;12.60;7.22;;;384.60;2329.60;;;;;;5057347;28;20426;-86
2023/05/24 02:08:33;;;;;;;13.63;7.80;;;;;;;;;;5057195;28;20028;-85
2023/05/24 02:10:59;;;;;;;10.30;8.18;;;384.70;2329.60;;;;;;5074837;28;20487;-85
2023/05/24 02:13:24;;;;;;;10.18;7.88;;;384.50;2329.60;;;;;;5057262;28;20024;-86
2023/05/24 02:15:52;;;;;;;11.15;7.40;;;384.00;2329.60;;;;;;5056838;28;20025;-86
2023/05/24 02:18:18;;;;;;;12.88;7.20;;;384.00;2329.60;;;;;;5074993;28;20107;-83
2023/05/24 02:20:44;;;;;;;12.02;7.82;;;384.20;2329.60;;;;;;5074858;28;20104;-85
2023/05/24 02:23:10;;;;;;;9.70;8.00;;;384.20;2329.60;;;;;;5056602;28;20485;-85
2023/05/24 02:25:36;;;;;;;11.48;8.15;;;384.20;2329.60;;;;;;5074815;28;20056;-85
2023/05/24 02:28:01;;;;;;;10.43;7.63;;;384.10;2329.60;;;;;;5057027;28;20035;-85
2023/05/24 02:30:27;;;;;;;12.00;8.23;;;384.10;2329.60;;;;;;5056569;28;20492;-85
2023/05/24 02:32:53;;;;;;;11.18;7.88;;;384.10;2329.60;;;;;;5074495;28;20037;-82
2023/05/24 02:35:19;;;;;;;12.20;7.22;;;384.10;2329.60;;;;;;5056617;28;20440;-85
2023/05/24 02:37:45;;;;;;;13.88;7.75;;;384.10;2329.60;;;;;;5056346;28;20036;-85
2023/05/24 02:40:12;;;;;;;14.15;8.80;;;359.30;2329.60;;;;;;5057414;28;20025;-85
2023/05/24 02:42:37;;;;;;;11.07;8.45;;;359.30;2329.60;;;;;;5036674;28;20021;-85
2023/05/24 02:45:03;;;;;;;14.20;9.50;;;384.00;2329.60;;;;;;5036510;28;20029;-83
2023/05/24 02:47:29;;;;;;;10.52;8.02;;;384.10;2329.60;;;;;;5050107;28;20055;-85
2023/05/24 02:49:55;;;;;;;13.85;9.23;;;384.10;2329.60;;;;;;5056114;28;20366;-85
2023/05/24 02:52:22;;;;;;;11.52;9.23;;;384.10;2329.60;;;;;;5056183;28;20028;-85
2023/05/24 02:54:51;;;;;;;12.50;8.95;;;384.40;2329.60;;;;;;5056666;28;20094;-85
2023/05/24 02:57:17;;;;;;;12.38;8.80;;;384.20;2329.60;;;;;;5074317;28;20060;-85
2023/05/24 02:59:59;;;;;;;12.65;8.80;;;384.20;2329.60;;;;;;5112099;27;20380;-85
2023/05/24 03:02:27;;;;;;;12.32;9.10;;;384.10;2329.60;;;;;;5112666;28;20100;-84
2023/05/24 03:04:53;;;;;;;11.77;8.32;;;384.10;2329.60;;;;;;5113309;28;20024;-84
2023/05/24 03:07:19;;;;;;;10.23;8.05;;;359.30;2329.60;;;;;;5111439;28;20023;-83
2023/05/24 03:09:45;;;;;;;12.23;8.13;;;359.20;2329.60;;;;;;5112298;28;20023;-84
2023/05/24 03:12:11;;;;;;;9.93;7.68;;;359.20;2329.60;;;;;;5111056;28;20023;-84
2023/05/24 03:14:37;;;;;;;12.57;8.35;;;359.30;2329.60;;;;;;5110866;28;20486;-84
2023/05/24 03:17:03;;;;;;;11.82;8.60;;;359.30;2329.60;;;;;;5112202;28;20052;-84
2023/05/24 03:19:29;;;;;;;12.40;8.75;;;359.30;2329.60;;;;;;5111116;28;20385;-84
2023/05/24 03:21:55;;;;;;;15.48;9.77;;;359.30;2329.60;;;;;;5122749;28;20028;-80
2023/05/24 03:24:20;;;;;;;11.20;8.80;;;359.30;2329.60;;;;;;5124540;28;20111;-80
2023/05/24 03:26:46;;;;;;;10.40;8.25;;;359.30;2329.60;;;;;;5123766;28;20118;-81
2023/05/24 03:29:12;;;;;;;11.85;9.07;;;359.20;2329.60;;;;;;5123248;28;20081;-81
2023/05/24 03:31:38;;;;;;;12.88;8.75;;;359.30;2329.60;;;;;;5123082;28;20020;-79
2023/05/24 03:34:04;;;;;;;11.60;9.38;;;359.30;2329.60;;;;;;5122378;28;20462;-77
2023/05/24 03:36:29;;;;;;;12.20;8.70;;;359.30;2329.60;;;;;;5122417;28;20024;-78
2023/05/24 03:38:57;;;;;;;15.27;9.13;;;359.20;2329.60;;;;;;5118263;28;20096;-84
2023/05/24 03:41:23;;;;;;;12.27;9.40;;;384.00;2329.60;;;;;;5110169;28;20027;-83
2023/05/24 03:43:50;;;;;;;15.07;9.93;;;384.00;2329.60;;;;;;5111709;28;20027;-84
2023/05/24 03:46:16;;;;;;;13.75;10.32;;;359.30;2329.60;;;;;;5109179;28;20032;-83
2023/05/24 03:48:41;;;;;;;15.40;9.57;;;384.10;2329.60;;;;;;5108956;28;20024;-81
2023/05/24 03:51:08;;;;;;;11.77;8.45;;;384.20;2329.60;;;;;;5110101;28;20028;-83
2023/05/24 03:53:34;;;;;;;12.82;8.70;;;384.30;2329.60;;;;;;5111789;28;20148;-81
2023/05/24 03:55:59;;;;;;;14.63;8.77;;;384.30;2329.60;;;;;;5111303;28;20027;-83
2023/05/24 03:58:25;;;;;;;11.98;8.55;;;384.40;2329.60;;;;;;5109731;28;20047;-83
2023/05/24 04:00:51;;;;;;;15.75;9.05;;;384.30;2329.60;;;;;;5109538;28;20087;-84
2023/05/24 04:03:18;;;;;;;12.90;9.15;;;384.10;2329.60;;;;;;5110897;28;20024;-84
2023/05/24 04:05:44;;;;;;;12.57;8.52;;;384.10;2329.60;;;;;;5110160;28;20052;-84
2023/05/24 04:08:11;;;;;;;14.15;9.07;;;384.20;2329.60;;;;;;5109307;28;20032;-84
2023/05/24 04:10:37;;;;;;;12.00;8.75;;;384.30;2329.60;;;;;;5099902;28;20031;-83
2023/05/24 04:13:03;;;;;;;12.50;8.48;;;384.50;2329.60;;;;;;5096187;28;20108;-83
2023/05/24 04:15:29;;;;;;;16.60;9.18;;;384.60;2329.60;;;;;;5097281;28;20477;-84
2023/05/24 04:17:55;;;;;;;18.10;10.10;;;384.70;2329.60;;;;;;5078252;28;20109;-83
2023/05/24 04:20:24;;;;;;;16.88;9.25;;;384.70;2329.60;;;;;;5078584;28;20032;-83
2023/05/24 04:22:50;;;;;;;16.45;9.32;;;384.70;2329.60;;;;;;5096634;28;20083;-81
2023/05/24 04:25:16;;;;;;;13.18;8.80;;;384.80;2329.60;;;;;;5082608;28;20021;-83
2023/05/24 04:27:43;;;;;;;12.13;8.07;;;384.70;2329.60;;;;;;5079956;28;20060;-83
2023/05/24 04:30:09;;;;;;;12.73;8.65;;;384.50;2329.60;;;;;;5078459;28;20021;-84
2023/05/24 04:32:35;;;;;;;16.50;8.93;;;384.50;2329.60;;;;;;5075517;28;20028;-84
2023/05/24 04:35:03;;;;;;;11.15;8.63;;;384.30;2329.60;;;;;;5075554;28;20081;-84
2023/05/24 04:37:30;;;;;;;15.10;7.55;;;384.10;2329.60;;;;;;5075274;28;20033;-85
2023/05/24 04:39:56;;;;;;;12.18;7.90;;;384.30;2329.60;;;;;;5075477;28;20093;-84
2023/05/24 04:42:22;;;;;;;14.57;10.25;;;384.40;2329.60;;;;;;5076499;28;20024;-85
2023/05/24 04:44:48;;;;;;;13.88;9.13;;;384.20;2329.60;;;;;;5075382;28;20372;-84
2023/05/24 04:47:15;;;;;;;13.77;9.38;;;384.30;2329.60;;;;;;5076419;28;20440;-85
2023/05/24 04:49:40;;;;;;;13.77;9.50;;;384.40;2329.60;;;;;;5074783;28;20079;-84
2023/05/24 04:52:06;;;;;;;12.05;8.75;;;384.20;2329.60;;;;;;5075234;28;20028;-84
2023/05/24 04:54:32;;;;;;;16.85;9.05;;;384.40;2329.60;;;;;;5075228;28;20425;-85
2023/05/24 04:56:58;;;;;;;20.40;9.20;;;384.40;2329.60;;;;;;5074714;28;20024;-85
2023/05/24 04:59:24;;;;;;;16.23;8.77;;;384.40;2329.60;;;;;;5074697;28;20056;-85
2023/05/24 05:01:50;;;;;;;12.20;9.00;;;384.30;2329.60;;;;;;5075050;28;20078;-85
2023/05/24 05:04:16;;;;;;;18.00;8.90;;;384.40;2329.60;;;;;;5074920;28;20035;-86
2023/05/24 05:06:43;;;;;;;10.50;7.88;;;384.50;2329.60;;;;;;5075398;28;20052;-84
2023/05/24 05:09:11;;;;;;;16.38;8.60;;;384.70;2329.60;;;;;;5075032;28;20033;-85
2023/05/24 05:11:37;;;;;;;14.73;8.68;;;384.60;2329.60;;;;;;5074719;28;20115;-85
2023/05/24 05:14:03;;;;;;;14.55;8.90;;;384.60;2329.60;;;;;;5074777;28;20052;-85
2023/05/24 05:16:30;;;;;;;17.33;9.43;;;384.60;2329.60;;;;;;5074516;28;20050;-85
2023/05/24 05:18:56;;;;;;;16.67;9.15;;;384.60;2329.60;;;;;;5074470;28;20032;-86
2023/05/24 05:21:22;;;;;;;15.10;9.68;;;384.70;2329.60;;;;;;5073651;28;20029;-84
2023/05/24 05:23:48;;;;;;;12.07;8.90;;;384.80;2329.60;;;;;;5075925;28;20106;-85
2023/05/24 05:26:14;;;;;;;18.00;9.95;;;409.60;2355.20;;;;;;5074327;28;20028;-84
2023/05/24 05:28:39;;;;;;;15.75;8.82;;;409.70;2355.20;;;;;;5074526;28;20031;-85
2023/05/24 05:31:05;;;;;;;14.05;9.25;;;;;;;;;;5075689;28;20028;-85
2023/05/24 05:33:31;;;;;;;12.48;8.88;;;409.90;2355.20;;;;;;5074081;28;20116;-82
2023/05/24 05:35:57;;;;;;;12.88;9.25;;;409.80;2355.20;;;;;;5074577;28;20052;-84
2023/05/24 05:38:23;;;;;;;13.55;8.90;;;409.80;2355.20;;;;;;5074401;28;20128;-85
2023/05/24 05:40:49;;;;;;;12.88;8.77;;;;;;;;;;5079365;28;20391;-83
2023/05/24 05:43:15;;;;;;;18.23;8.52;;;;;;;;;;5094699;28;20387;-87
2023/05/24 05:45:41;;;;;;;15.25;8.93;;;;;;;;;;5094156;28;20024;-84
2023/05/24 05:48:07;;;;;;;12.40;8.18;;;;;;;;;;5094305;28;20463;-84
2023/05/24 05:50:33;;;;;;;14.48;8.70;;;;;;;;;;5094108;28;20020;-84
2023/05/24 05:52:59;;;;;;;13.07;8.85;;;;;;;;;;5094127;28;20486;-85
2023/05/24 05:55:25;;;;;;;13.02;8.68;;;;;;;;;;5095617;28;20024;-84
2023/05/24 05:57:52;;;;;;;12.55;7.80;;;;;;;;;;5100507;28;20048;-87
2023/05/24 06:00:18;;;;;;;13.02;9.00;;;;;;;;;;5105961;28;20050;-87
2023/05/24 06:02:44;;;;;;;13.98;9.85;;;;;;;;;;5115298;28;20558;-87
2023/05/24 06:05:10;;;;;;;19.15;10.43;;;;;;;;;;5114862;28;20020;-86
2023/05/24 06:07:37;;;;;;;16.10;8.75;;;;;;;;;;5096204;28;20471;-86
2023/05/24 06:10:03;;;;;;;16.33;8.43;;;;;;;;;;5096066;28;20028;-87
2023/05/24 06:12:29;;;;;;;16.20;8.65;;;;;;;;;;5095647;28;20024;-86
2023/05/24 06:14:56;;;;;;;14.60;8.35;;;;;;;;;;5095207;28;20024;-88
2023/05/24 06:17:23;;;;;;;13.82;7.88;;;;;;;;;;5095603;28;20027;-86
2023/05/24 06:19:52;;;;;;;11.95;8.18;;;;;;;;;;5095159;28;20028;-88
2023/05/24 06:22:18;;;;;;;16.35;11.90;;;;;;;;;;5095186;28;20482;-88
2023/05/24 06:24:45;;;;;;;16.30;7.75;;;;;;;;;;5098441;28;20024;-86
2023/05/24 06:27:10;;;;;;;11.98;7.35;;;461.10;2380.80;;;;;;5100518;28;20053;-87
2023/05/24 06:29:37;;;;;;;11.95;8.02;;;;;;;;;;5111383;28;20032;-88
2023/05/24 06:32:03;;;;;;;9.80;6.97;;;;;;;;;;5102423;28;20027;-87
2023/05/24 06:34:29;;;;;;;9.90;7.47;;;;;;;;;;5114245;28;20084;-87
2023/05/24 06:36:56;;;;;;;9.68;7.07;;;;;;;;;;5114217;28;20073;-87
2023/05/24 06:39:24;;;;;;;11.50;6.85;;;;;;;;;;5114204;28;20031;-87
2023/05/24 06:41:50;;;;;;;9.07;6.78;;;;;;;;;;5114107;28;20019;-87
2023/05/24 06:44:17;;;;;;;13.32;7.28;;;;;;;;;;5114259;28;20115;-86
2023/05/24 06:46:43;;;;;;;8.75;6.90;;;;;;;;;;5114309;28;20063;-87
2023/05/24 06:49:09;;;;;;;10.23;7.18;;;486.70;2380.80;;;;;;5115117;28;20023;-87
2023/05/24 06:51:36;;;;;;;8.48;6.82;;;486.70;2380.80;;;;;;5115196;28;20371;-86
2023/05/24 06:54:03;;;;;;;10.18;7.10;;;;;;;;;;5114708;28;20087;-86
2023/05/24 06:56:29;;;;;;;10.75;6.85;;;;;;;;;;5114251;28;20367;-86
2023/05/24 06:58:55;;;;;;;9.70;6.80;;;;;;;;;;5181078;22;20182;-85
2023/05/24 07:01:22;;;;;;;12.50;6.82;;;;;;;;;;5054472;28;20028;-85
2023/05/24 07:03:48;;;;;;;10.73;6.90;;;;;;;;;;5053320;28;20108;-85
2023/05/24 07:06:15;;;;;;;14.98;7.13;;;;;;;;;;5053344;28;20083;-86
2023/05/24 07:08:41;;;;;;;10.15;7.10;;;;;;;;;;5053666;28;20369;-85
2023/05/24 07:11:08;;;;;;;12.52;6.45;;;;;;;;;;5053347;28;20025;-85
2023/05/24 07:13:34;;;;;;;10.50;6.35;;;;;;;;;;5053172;28;20021;-85
2023/05/24 07:16:00;;;;;;;12.27;6.60;;;512.90;2380.80;;;;;;5053047;28;20104;-85
2023/05/24 07:18:26;;;;;;;12.75;6.05;;;512.90;2380.80;;;;;;5054020;28;20033;-85
2023/05/24 07:20:53;;;;;;;7.82;6.50;;;512.90;2380.80;;;;;;5053309;28;20025;-86
2023/05/24 07:23:19;;;;;;;10.40;6.32;;;512.90;2380.80;;;;;;5049102;28;20026;-86
2023/05/24 07:25:45;;;;;;;12.55;7.00;;;537.60;2406.40;;;;;;5032251;28;20041;-85
2023/05/24 07:28:13;;;;;;;9.00;6.20;;;512.80;2380.80;;;;;;5033111;28;20033;-86
2023/05/24 07:30:38;;;;;;;15.85;7.30;;;537.80;2406.40;;;;;;5034522;28;20025;-86
2023/05/24 07:33:04;;;;;;;9.15;6.85;;;537.90;2406.40;;;;;;5033406;28;20028;-85
2023/05/24 07:35:30;;;;;;;10.38;6.70;;;537.90;2406.40;;;;;;5033218;28;20030;-86
2023/05/24 07:37:56;;;;;;;9.88;7.28;;;537.90;2406.40;;;;;;5033914;28;20140;-85
2023/05/24 07:40:22;;;;;;;11.73;6.05;;;538.10;2406.40;;;;;;5057419;28;20024;-85
2023/05/24 07:42:47;;;;;;;13.27;7.68;;;538.10;2406.40;;;;;;5056431;28;20085;-85
2023/05/24 07:45:13;;;;;;;8.20;7.05;;;538.20;2406.40;;;;;;5056643;28;20037;-84
2023/05/24 07:47:39;;;;;;;12.32;6.85;;;538.40;2406.40;;;;;;5045357;28;20026;-85
2023/05/24 07:50:06;;;;;;;10.70;6.38;;;563.30;2432.00;;;;;;5036917;28;20029;-86
2023/05/24 07:52:31;;;;;;;9.07;6.32;;;563.50;2432.00;;;;;;5037065;28;20393;-86
2023/05/24 07:54:57;;;;;;;13.68;6.90;;;;;;;;;;5038751;28;20030;-89
2023/05/24 07:57:23;;;;;;;9.13;6.25;;;564.10;2432.00;;;;;;5036994;28;20032;-88
2023/05/24 07:59:49;;;;;;;10.10;7.40;;;588.80;2432.00;;;;;;5037550;28;20037;-87
2023/05/24 08:02:15;;;;;;;9.65;6.07;;;588.90;2432.00;;;;;;5036646;28;20038;-88
2023/05/24 08:04:42;;;;;;;9.68;6.38;;;589.00;2432.00;;;;;;5036916;28;20034;-89
2023/05/24 08:07:08;;;;;;;10.60;6.60;;;589.00;2432.00;;;;;;5052800;28;20097;-87
2023/05/24 08:09:35;;;;;;;8.55;5.97;;;588.90;2432.00;;;;;;5056558;28;20061;-86
2023/05/24 08:12:02;;;;;;;13.27;6.80;;;588.90;2432.00;;;;;;5056593;28;20043;-87
2023/05/24 08:14:28;;;;;;;9.00;6.30;;;589.20;2432.00;;;;;;5056188;28;20029;-86
2023/05/24 08:16:54;;;;;;;9.38;6.55;;;589.50;2432.00;;;;;;5056353;28;20029;-86
2023/05/24 08:19:20;;;;;;;9.88;6.40;;;589.60;2432.00;;;;;;5056380;28;20033;-88
2023/05/24 08:21:46;;;;;;;10.50;6.78;;;614.40;2432.00;;;;;;5055835;28;20391;-86
2023/05/24 08:24:12;;;;;;;12.57;6.75;;;;;;;;;;5055449;28;20047;-87
2023/05/24 08:26:38;;;;;;;14.57;6.75;;;;;;;;;;5055455;28;20033;-84
2023/05/24 08:29:04;;;;;;;10.73;6.22;;;;;;;;;;5057087;28;20468;-85
2023/05/24 08:31:32;;;;;;;8.80;6.13;;;;;;;;;;5055799;28;20021;-87
2023/05/24 08:33:58;;;;;;;13.20;6.25;;;614.90;2380.80;;;;;;5055513;28;20036;-87
2023/05/24 08:36:24;;;;;;;12.05;6.18;;;614.60;2406.40;;;;;;5055800;28;20115;-89
2023/05/24 08:38:50;;;;;;;7.93;6.20;;;614.60;2406.40;;;;;;5056029;28;20437;-89
2023/05/24 08:41:16;;;;;;;10.65;6.13;;;614.70;2432.00;;;;;;5057026;28;20025;-90
2023/05/24 08:43:43;;;;;;;8.52;5.90;;;615.00;2432.00;;;;;;5059183;28;20104;-89
2023/05/24 08:46:11;;;;;;;7.63;5.55;;;614.90;2380.80;;;;;;5053242;28;20140;-87
2023/05/24 08:48:45;;;;;;;8.40;5.70;;;615.30;2355.20;;;;;;5056352;28;20040;-89
2023/05/24 08:51:11;;;;;;;8.88;5.38;;;615.00;2355.20;;;;;;5059125;28;20021;-88
2023/05/24 08:53:38;;;;;;;8.65;5.82;;;615.10;2355.20;;;;;;5063789;28;20025;-88
2023/05/24 08:56:05;;;;;;;10.48;5.25;;;640.30;2355.20;;;;;;5067059;28;20021;-86
2023/05/24 08:58:30;;;;;;;11.13;6.13;;;640.30;2304.00;;;;;;5067950;28;20056;-86
2023/05/24 09:00:58;;;;;;;15.75;5.68;;;640.50;2304.00;;;;;;5065070;28;20426;-86
2023/05/24 09:03:25;;;;;;;12.73;6.45;;;640.70;2252.80;;;;;;5056204;28;20452;-85
2023/05/24 09:05:52;;;;;;;8.32;5.63;;;665.70;2278.40;;;;;;5055525;28;20515;-88
2023/05/24 09:08:19;;;;;;;6.20;4.93;;;665.90;2252.80;;;;;;5055475;28;20124;-87
2023/05/24 09:10:46;;;;;;;13.13;7.60;;;665.90;2176.00;;;;;;5054922;28;20096;-87
2023/05/24 09:13:14;;;;;;;9.20;5.28;;;666.20;2176.00;;;;;;5054873;28;20078;-85
2023/05/24 09:15:40;;;;;;;17.77;6.90;;;666.40;2150.40;;;;;;5055706;28;20078;-85
2023/05/24 09:18:06;;;;;;;9.07;6.07;;;691.30;2124.80;;;;;;5056060;28;20127;-85
2023/05/24 09:20:32;;;;;;;7.10;4.50;;;691.30;2124.80;;;;;;5055005;28;20025;-85
2023/05/24 09:23:01;;;;;;;9.27;5.20;;;666.30;2048.00;;;;;;5056310;28;20460;-87
2023/05/24 09:25:28;;;;;;;7.13;4.70;;;666.30;2048.00;;;;;;5056081;28;20021;-85
2023/05/24 09:27:55;;;;;;;6.90;4.40;;;666.20;2073.60;;;;;;5056426;28;20078;-87
2023/05/24 09:30:21;;;;;;;10.23;5.90;;;666.30;2099.20;;;;;;5062340;28;20033;-85
2023/05/24 09:33:00;;;;;;;6.72;5.07;;;691.30;2124.80;;;;;;5061561;28;20396;-85
2023/05/24 09:35:27;;;;;;;9.90;5.15;;;691.50;2099.20;;;;;;5057094;28;20108;-87
2023/05/24 09:37:59;;;;;;;9.55;5.10;;;691.60;2124.80;;;;;;5056657;28;20409;-86
2023/05/24 09:40:26;;;;;;;8.10;4.82;;;691.80;2099.20;;;;;;5055276;28;20083;-85
2023/05/24 09:43:08;;;;;;;8.35;4.90;;;691.40;2099.20;;;;;;5056854;28;20032;-86
2023/05/24 09:45:45;;;;;;;15.35;6.13;;;691.60;2124.80;;;;;;5055651;28;20124;-86
2023/05/24 09:48:12;;;;;;;6.95;4.97;;;692.00;2124.80;;;;;;5054826;28;20142;-86
2023/05/24 09:50:38;;;;;;;8.38;4.82;;;716.90;2124.80;;;;;;5054184;28;20031;-85
2023/05/24 09:53:05;;;;;;;12.05;4.60;;;717.30;2022.40;;;;;;5054511;28;20025;-86
2023/05/24 09:55:36;;;;;;;7.60;4.75;;;717.30;2022.40;;;;;;5054434;28;20022;-86
2023/05/24 09:58:03;;;;;;;5.80;4.20;;;;;;;;;;5053895;28;20100;-86
2023/05/24 10:00:32;;;;;;;7.57;4.93;;;742.40;1996.80;;;;;;5054581;28;20056;-85
2023/05/24 10:03:07;;;;;;;5.63;4.25;;;717.70;1996.80;;;;;;5054655;28;20025;-86
2023/05/24 10:05:34;;;;;;;9.50;4.28;;;;;;;;;;5054423;28;20032;-86
2023/05/24 10:08:01;;;;;;;10.70;4.35;;;;;;;;;;5054947;28;20021;-85
2023/05/24 10:10:28;;;;;;;7.43;4.35;;;;;;;;;;5054309;28;20079;-85
2023/05/24 10:12:55;;;;;;;7.20;4.40;;;;;;;;;;5055002;28;20036;-86
2023/05/24 10:15:21;;;;;;;7.38;5.05;;;;;;;;;;5055900;28;20028;-87
2023/05/24 10:17:48;;;;;;;7.13;4.70;;;;;;;;;;5057381;28;20447;-84
2023/05/24 10:20:14;;;;;;;12.20;5.40;;;;;;;;;;5055369;28;20067;-85
2023/05/24 10:22:46;;;;;;;7.22;4.68;;;;;;;;;;5055372;28;20112;-85
2023/05/24 10:25:13;;;;;;;;;;;;;;;;;;5054519;28;20025;-85
2023/05/24 10:27:40;;;;;;;10.25;4.50;;;;;;;;;;5055088;28;20038;-85
2023/05/24 10:30:29;;;;;;;7.85;4.68;;;;;;;;;;5053427;28;20032;-87
2023/05/24 10:32:56;;;;;;;8.20;4.45;;;;;;;;;;5054089;28;20438;-87
2023/05/24 10:35:23;;;;;;;6.82;4.32;;;;;;;;;;5053981;28;20090;-86
2023/05/24 10:37:49;;;;;;;5.82;3.97;;;;;;;;;;5054475;28;20025;-88
2023/05/24 10:40:18;;;;;;;6.35;4.07;;;;;;;;;;5054536;28;20122;-86
2023/05/24 10:42:45;;;;;;;5.13;4.10;;;;;;;;;;5054257;28;20017;-88
2023/05/24 10:45:31;;;;;;;9.18;5.07;;;;;;;;;;5055336;28;20025;-87
2023/05/24 10:48:00;;;;;;;8.18;5.35;;;;;;;;;;5054749;28;20017;-87
2023/05/24 10:50:28;;;;;;;9.25;4.82;;;;;;;;;;5054636;28;20021;-86
2023/05/24 10:53:11;;;;;;;6.28;3.92;;;;;;;;;;5056778;28;20029;-86
2023/05/24 10:55:51;;;;;;;7.32;3.92;;;;;;;;;;5057979;28;20024;-85
2023/05/24 10:58:17;;;;;;;9.05;4.50;;;;;;;;;;5057922;28;20049;-85
2023/05/24 11:00:44;;;;;;;5.30;3.92;;;;;;;;;;5056145;28;20108;-86
2023/05/24 11:03:12;;;;;;;6.22;3.83;;;;;;;;;;5061241;28;20107;-87
2023/05/24 11:05:50;;;;;;;9.35;4.53;;;;;;;;;;5102162;22;21018;-89
2023/05/24 11:08:34;;;;;;;8.93;5.03;;;;;;;;;;5060945;28;20037;-88
2023/05/24 11:11:10;;;;;;;5.90;3.75;;;;;;;;;;5078291;28;20024;-88
2023/05/24 11:13:37;;;;;;;6.80;4.15;;;;;;;;;;5061098;28;20021;-85
2023/05/24 11:16:03;;;;;;;9.15;3.92;;;;;;;;;;5040356;28;20032;-86
2023/05/24 11:18:30;;;;;;;5.07;3.83;;;;;;;;;;5036869;28;20037;-86
2023/05/24 11:20:56;;;;;;;6.82;4.63;;;;;;;;;;5057245;28;20100;-86
2023/05/24 11:23:22;;;;;;;8.70;4.07;;;;;;;;;;5040895;28;20048;-86
2023/05/24 11:25:49;;;;;;;5.88;3.67;;;;;;;;;;5040697;28;20357;-88
2023/05/24 11:28:15;;;;;;;7.97;4.32;;;;;;;;;;5041648;28;20029;-86
2023/05/24 11:30:42;;;;;;;8.88;4.22;;;;;;;;;;5044122;28;20103;-86
2023/05/24 11:33:14;;;;;;;6.53;3.80;;;;;;;;;;5041008;28;20106;-88
2023/05/24 11:35:41;;;;;;;6.70;4.20;;;;;;;;;;5040931;28;20468;-89
2023/05/24 11:38:14;;;;;;;6.78;3.97;;;;;;;;;;5040019;28;20178;-88
2023/05/24 11:40:44;;;;;;;12.80;5.70;;;;;;;;;;5040488;28;20025;-88
2023/05/24 11:43:13;;;;;;;9.18;4.90;;;;;;;;;;5040007;28;20029;-88
2023/05/24 11:45:40;;;;;;;10.82;4.35;;;;;;;;;;5040340;28;20031;-88
2023/05/24 11:48:07;;;;;;;7.10;4.47;;;;;;;;;;5041019;28;20025;-87
2023/05/24 11:50:37;;;;;;;7.03;4.43;;;;;;;;;;5040581;28;20037;-86
2023/05/24 11:53:04;;;;;;;5.38;3.90;;;;;;;;;;5040588;28;20055;-88
2023/05/24 11:55:31;;;;;;;6.50;4.28;;;;;;;;;;5040014;28;20043;-87
2023/05/24 11:57:58;;;;;;;8.63;4.70;;;;;;;;;;5057483;28;20048;-88
2023/05/24 12:00:28;;;;;;;9.23;4.40;;;;;;;;;;5041382;28;20025;-87
2023/05/24 12:03:00;;;;;;;6.72;4.82;;;;;;;;;;5042214;28;20021;-88
2023/05/24 12:05:30;;;;;;;9.93;4.88;;;;;;;;;;5039215;28;20025;-86
2023/05/24 12:08:27;;;;;;;9.90;5.20;;;;;;;;;;5040759;28;20025;-87
2023/05/24 12:10:53;;;;;;;8.52;4.72;;;;;;;;;;4979507;28;20073;-86
2023/05/24 12:13:24;;;;;;;8.18;5.00;;;;;;;;;;4996124;28;20478;-87
2023/05/24 12:15:53;;;;;;;6.40;4.33;;;;;;;;;;4995765;28;20096;-88
2023/05/24 12:18:20;;;;;;;7.10;4.55;;;;;;;;;;4996072;28;20450;-87
2023/05/24 12:20:48;;;;;;;8.82;4.53;;;;;;;;;;4997310;28;20044;-88
2023/05/24 12:23:14;;;;;;;8.00;4.57;;;;;;;;;;4996260;28;20023;-87
2023/05/24 12:25:40;;;;;;;6.10;3.92;;;;;;;;;;4995719;28;20073;-88
2023/05/24 12:28:06;;;;;;;5.93;3.80;;;;;;;;;;4995884;28;20041;-87
2023/05/24 12:30:32;;;;;;;6.15;3.72;;;;;;;;;;4995531;28;20046;-86
2023/05/24 12:32:58;;;;;;;7.40;4.43;;;;;;;;;;4996546;28;20030;-86
2023/05/24 12:35:24;;;;;;;8.02;4.20;;;;;;;;;;5000607;28;20081;-87
2023/05/24 12:37:58;;;;;;;7.03;4.22;;;;;;;;;;4996792;28;20069;-87
2023/05/24 12:40:25;;;;;;;7.05;4.60;;;;;;;;;;4995994;28;20062;-87
2023/05/24 12:42:56;;;;;;;6.03;4.18;;;;;;;;;;4996333;28;20445;-88
2023/05/24 12:45:26;;;;;;;6.13;3.95;;;;;;;;;;4996548;28;20023;-88
2023/05/24 12:47:53;;;;;;;7.75;3.92;;;;;;;;;;5017480;28;20041;-89
2023/05/24 12:50:21;;;;;;;5.60;3.78;;;;;;;;;;5020365;28;20033;-88
2023/05/24 12:52:47;;;;;;;6.68;3.47;;;;;;;;;;5021126;28;20028;-90
2023/05/24 12:55:16;;;;;;;5.90;4.07;;;;;;;;;;5020388;28;20499;-89
2023/05/24 12:57:43;;;;;;;7.13;4.20;;;;;;;;;;5019654;28;20048;-87
2023/05/24 13:00:10;;;;;;;5.95;4.53;;;;;;;;;;5020645;28;20033;-87
2023/05/24 13:02:39;;;;;;;8.00;4.40;;;;;;;;;;5020481;28;20029;-91